sensor_id;sensor_type;location;lat;lon;timestamp;P1;durP1;ratioP1;P2;durP2;ratioP2
48951;SDS011;34758;42.148;24.744;2023-05-07T00:01:49;4.68;;;2.40;;
48951;SDS011;34758;42.148;24.744;2023-05-07T00:04:18;5.60;;;2.60;;
48951;SDS011;34758;42.148;24.744;2023-05-07T00:06:45;5.80;;;2.60;;
48951;SDS011;34758;42.148;24.744;2023-05-07T00:09:12;5.00;;;2.38;;
48951;SDS011;34758;42.148;24.744;2023-05-07T00:11:39;5.90;;;2.40;;
48951;SDS011;34758;42.148;24.744;2023-05-07T00:14:06;4.05;;;2.42;;
48951;SDS011;34758;42.148;24.744;2023-05-07T00:16:33;4.03;;;2.50;;
48951;SDS011;34758;42.148;24.744;2023-05-07T00:19:00;5.03;;;2.60;;
48951;SDS011;34758;42.148;24.744;2023-05-07T00:21:28;4.97;;;2.45;;
48951;SDS011;34758;42.148;24.744;2023-05-07T00:23:55;4.93;;;2.72;;
48951;SDS011;34758;42.148;24.744;2023-05-07T00:26:22;4.15;;;2.58;;
48951;SDS011;34758;42.148;24.744;2023-05-07T00:28:49;5.45;;;3.05;;
48951;SDS011;34758;42.148;24.744;2023-05-07T00:31:16;6.20;;;2.58;;
48951;SDS011;34758;42.148;24.744;2023-05-07T00:33:43;3.60;;;2.60;;
48951;SDS011;34758;42.148;24.744;2023-05-07T00:36:10;6.18;;;2.83;;
48951;SDS011;34758;42.148;24.744;2023-05-07T00:38:38;4.25;;;2.60;;
48951;SDS011;34758;42.148;24.744;2023-05-07T00:41:05;4.32;;;2.50;;
48951;SDS011;34758;42.148;24.744;2023-05-07T00:43:32;6.30;;;2.83;;
48951;SDS011;34758;42.148;24.744;2023-05-07T00:45:59;5.07;;;2.70;;
48951;SDS011;34758;42.148;24.744;2023-05-07T00:48:26;4.22;;;2.80;;
48951;SDS011;34758;42.148;24.744;2023-05-07T00:50:54;5.50;;;3.08;;
48951;SDS011;34758;42.148;24.744;2023-05-07T00:53:20;4.00;;;2.75;;
48951;SDS011;34758;42.148;24.744;2023-05-07T00:55:50;5.43;;;2.85;;
48951;SDS011;34758;42.148;24.744;2023-05-07T00:58:17;5.88;;;2.55;;
48951;SDS011;34758;42.148;24.744;2023-05-07T01:00:45;5.53;;;3.17;;
48951;SDS011;34758;42.148;24.744;2023-05-07T01:03:14;3.65;;;2.70;;
48951;SDS011;34758;42.148;24.744;2023-05-07T01:05:41;4.38;;;2.55;;
48951;SDS011;34758;42.148;24.744;2023-05-07T01:08:09;5.25;;;3.10;;
48951;SDS011;34758;42.148;24.744;2023-05-07T01:10:36;3.28;;;2.83;;
48951;SDS011;34758;42.148;24.744;2023-05-07T01:13:09;5.23;;;2.67;;
48951;SDS011;34758;42.148;24.744;2023-05-07T01:15:38;6.13;;;3.30;;
48951;SDS011;34758;42.148;24.744;2023-05-07T01:18:05;4.70;;;3.15;;
48951;SDS011;34758;42.148;24.744;2023-05-07T01:20:34;7.55;;;3.20;;
48951;SDS011;34758;42.148;24.744;2023-05-07T01:23:06;8.18;;;3.45;;
48951;SDS011;34758;42.148;24.744;2023-05-07T01:25:33;7.25;;;3.30;;
48951;SDS011;34758;42.148;24.744;2023-05-07T01:28:00;7.60;;;2.53;;
48951;SDS011;34758;42.148;24.744;2023-05-07T01:30:27;5.32;;;2.97;;
48951;SDS011;34758;42.148;24.744;2023-05-07T01:32:56;7.93;;;3.13;;
48951;SDS011;34758;42.148;24.744;2023-05-07T01:35:26;5.82;;;2.95;;
48951;SDS011;34758;42.148;24.744;2023-05-07T01:37:55;8.23;;;3.42;;
48951;SDS011;34758;42.148;24.744;2023-05-07T01:40:24;6.43;;;3.13;;
48951;SDS011;34758;42.148;24.744;2023-05-07T01:42:50;5.07;;;3.42;;
48951;SDS011;34758;42.148;24.744;2023-05-07T01:45:18;3.40;;;2.78;;
48951;SDS011;34758;42.148;24.744;2023-05-07T01:47:45;5.22;;;3.25;;
48951;SDS011;34758;42.148;24.744;2023-05-07T01:50:12;6.43;;;2.90;;
48951;SDS011;34758;42.148;24.744;2023-05-07T01:52:39;7.22;;;3.28;;
48951;SDS011;34758;42.148;24.744;2023-05-07T01:55:06;11.38;;;5.72;;
48951;SDS011;34758;42.148;24.744;2023-05-07T01:57:35;6.10;;;4.15;;
48951;SDS011;34758;42.148;24.744;2023-05-07T02:00:04;6.93;;;4.80;;
48951;SDS011;34758;42.148;24.744;2023-05-07T02:02:31;9.48;;;5.60;;
48951;SDS011;34758;42.148;24.744;2023-05-07T02:04:59;6.57;;;4.85;;
48951;SDS011;34758;42.148;24.744;2023-05-07T02:07:26;9.00;;;5.10;;
48951;SDS011;34758;42.148;24.744;2023-05-07T02:09:53;6.35;;;4.68;;
48951;SDS011;34758;42.148;24.744;2023-05-07T02:12:22;8.13;;;4.40;;
48951;SDS011;34758;42.148;24.744;2023-05-07T02:14:54;6.65;;;4.10;;
48951;SDS011;34758;42.148;24.744;2023-05-07T02:17:22;5.43;;;3.55;;
48951;SDS011;34758;42.148;24.744;2023-05-07T02:19:49;3.95;;;3.13;;
48951;SDS011;34758;42.148;24.744;2023-05-07T02:22:16;5.57;;;3.47;;
48951;SDS011;34758;42.148;24.744;2023-05-07T02:24:43;8.52;;;3.92;;
48951;SDS011;34758;42.148;24.744;2023-05-07T02:27:09;4.80;;;3.17;;
48951;SDS011;34758;42.148;24.744;2023-05-07T02:29:36;4.95;;;3.55;;
48951;SDS011;34758;42.148;24.744;2023-05-07T02:32:05;5.55;;;3.30;;
48951;SDS011;34758;42.148;24.744;2023-05-07T02:34:32;6.03;;;3.45;;
48951;SDS011;34758;42.148;24.744;2023-05-07T02:36:59;5.82;;;3.50;;
48951;SDS011;34758;42.148;24.744;2023-05-07T02:39:25;5.53;;;3.33;;
48951;SDS011;34758;42.148;24.744;2023-05-07T02:41:54;6.57;;;3.33;;
48951;SDS011;34758;42.148;24.744;2023-05-07T02:44:21;7.05;;;3.78;;
48951;SDS011;34758;42.148;24.744;2023-05-07T02:46:48;6.28;;;3.15;;
48951;SDS011;34758;42.148;24.744;2023-05-07T02:49:16;5.78;;;3.55;;
48951;SDS011;34758;42.148;24.744;2023-05-07T02:51:43;4.32;;;3.20;;
48951;SDS011;34758;42.148;24.744;2023-05-07T02:54:10;5.90;;;3.90;;
48951;SDS011;34758;42.148;24.744;2023-05-07T02:56:37;5.50;;;3.42;;
48951;SDS011;34758;42.148;24.744;2023-05-07T02:59:04;5.82;;;3.17;;
48951;SDS011;34758;42.148;24.744;2023-05-07T03:01:31;5.60;;;3.80;;
48951;SDS011;34758;42.148;24.744;2023-05-07T03:03:59;6.78;;;4.22;;
48951;SDS011;34758;42.148;24.744;2023-05-07T03:06:27;7.38;;;4.10;;
48951;SDS011;34758;42.148;24.744;2023-05-07T03:08:55;5.15;;;3.63;;
48951;SDS011;34758;42.148;24.744;2023-05-07T03:11:22;5.10;;;3.80;;
48951;SDS011;34758;42.148;24.744;2023-05-07T03:13:49;5.82;;;3.80;;
48951;SDS011;34758;42.148;24.744;2023-05-07T03:16:17;9.27;;;5.10;;
48951;SDS011;34758;42.148;24.744;2023-05-07T03:18:44;6.63;;;4.30;;
48951;SDS011;34758;42.148;24.744;2023-05-07T03:21:11;4.93;;;4.00;;
48951;SDS011;34758;42.148;24.744;2023-05-07T03:23:41;7.35;;;4.43;;
48951;SDS011;34758;42.148;24.744;2023-05-07T03:26:08;7.82;;;4.60;;
48951;SDS011;34758;42.148;24.744;2023-05-07T03:28:35;6.50;;;4.20;;
48951;SDS011;34758;42.148;24.744;2023-05-07T03:31:04;7.05;;;4.40;;
48951;SDS011;34758;42.148;24.744;2023-05-07T03:33:32;8.23;;;4.20;;
48951;SDS011;34758;42.148;24.744;2023-05-07T03:36:02;6.43;;;4.20;;
48951;SDS011;34758;42.148;24.744;2023-05-07T03:38:29;7.38;;;4.97;;
48951;SDS011;34758;42.148;24.744;2023-05-07T03:40:58;5.10;;;4.53;;
48951;SDS011;34758;42.148;24.744;2023-05-07T03:43:25;7.15;;;4.38;;
48951;SDS011;34758;42.148;24.744;2023-05-07T03:45:52;5.13;;;4.20;;
48951;SDS011;34758;42.148;24.744;2023-05-07T03:48:20;10.30;;;5.22;;
48951;SDS011;34758;42.148;24.744;2023-05-07T03:50:47;7.60;;;4.55;;
48951;SDS011;34758;42.148;24.744;2023-05-07T03:53:14;8.43;;;4.57;;
48951;SDS011;34758;42.148;24.744;2023-05-07T03:55:41;6.15;;;4.32;;
48951;SDS011;34758;42.148;24.744;2023-05-07T03:58:09;9.98;;;5.35;;
48951;SDS011;34758;42.148;24.744;2023-05-07T04:00:36;7.18;;;4.75;;
48951;SDS011;34758;42.148;24.744;2023-05-07T04:03:05;7.38;;;5.05;;
48951;SDS011;34758;42.148;24.744;2023-05-07T04:05:32;6.95;;;5.20;;
48951;SDS011;34758;42.148;24.744;2023-05-07T04:08:01;7.32;;;5.68;;
48951;SDS011;34758;42.148;24.744;2023-05-07T04:10:29;7.93;;;5.63;;
48951;SDS011;34758;42.148;24.744;2023-05-07T04:12:56;6.00;;;5.20;;
48951;SDS011;34758;42.148;24.744;2023-05-07T04:15:26;6.82;;;4.80;;
48951;SDS011;34758;42.148;24.744;2023-05-07T04:17:53;7.45;;;5.00;;
48951;SDS011;34758;42.148;24.744;2023-05-07T04:20:20;8.50;;;4.90;;
48951;SDS011;34758;42.148;24.744;2023-05-07T04:22:47;7.85;;;5.00;;
48951;SDS011;34758;42.148;24.744;2023-05-07T04:25:15;6.80;;;4.18;;
48951;SDS011;34758;42.148;24.744;2023-05-07T04:27:42;6.40;;;4.93;;
48951;SDS011;34758;42.148;24.744;2023-05-07T04:30:12;8.30;;;5.35;;
48951;SDS011;34758;42.148;24.744;2023-05-07T04:32:41;9.02;;;4.55;;
48951;SDS011;34758;42.148;24.744;2023-05-07T04:35:09;7.88;;;4.88;;
48951;SDS011;34758;42.148;24.744;2023-05-07T04:37:38;6.65;;;5.40;;
48951;SDS011;34758;42.148;24.744;2023-05-07T04:40:05;8.45;;;5.13;;
48951;SDS011;34758;42.148;24.744;2023-05-07T04:42:33;7.50;;;4.70;;
48951;SDS011;34758;42.148;24.744;2023-05-07T04:45:00;6.28;;;5.10;;
48951;SDS011;34758;42.148;24.744;2023-05-07T04:47:27;7.78;;;4.95;;
48951;SDS011;34758;42.148;24.744;2023-05-07T04:49:57;8.27;;;5.15;;
48951;SDS011;34758;42.148;24.744;2023-05-07T04:52:24;7.32;;;4.88;;
48951;SDS011;34758;42.148;24.744;2023-05-07T04:54:51;8.32;;;5.32;;
48951;SDS011;34758;42.148;24.744;2023-05-07T04:57:18;5.55;;;5.05;;
48951;SDS011;34758;42.148;24.744;2023-05-07T04:59:45;6.90;;;5.38;;
48951;SDS011;34758;42.148;24.744;2023-05-07T05:02:12;9.27;;;5.03;;
48951;SDS011;34758;42.148;24.744;2023-05-07T05:04:40;11.20;;;5.07;;
48951;SDS011;34758;42.148;24.744;2023-05-07T05:07:08;6.45;;;4.90;;
48951;SDS011;34758;42.148;24.744;2023-05-07T05:09:36;7.97;;;5.50;;
48951;SDS011;34758;42.148;24.744;2023-05-07T05:12:04;6.35;;;4.75;;
48951;SDS011;34758;42.148;24.744;2023-05-07T05:14:32;8.90;;;5.15;;
48951;SDS011;34758;42.148;24.744;2023-05-07T05:16:59;5.55;;;4.88;;
48951;SDS011;34758;42.148;24.744;2023-05-07T05:19:27;8.73;;;5.13;;
48951;SDS011;34758;42.148;24.744;2023-05-07T05:21:54;5.40;;;4.80;;
48951;SDS011;34758;42.148;24.744;2023-05-07T05:24:24;5.10;;;4.47;;
48951;SDS011;34758;42.148;24.744;2023-05-07T05:26:52;5.65;;;4.90;;
48951;SDS011;34758;42.148;24.744;2023-05-07T05:29:20;5.68;;;4.30;;
48951;SDS011;34758;42.148;24.744;2023-05-07T05:31:47;5.60;;;4.53;;
48951;SDS011;34758;42.148;24.744;2023-05-07T05:34:14;6.35;;;5.10;;
48951;SDS011;34758;42.148;24.744;2023-05-07T05:36:43;8.75;;;4.65;;
48951;SDS011;34758;42.148;24.744;2023-05-07T05:39:10;6.28;;;4.18;;
48951;SDS011;34758;42.148;24.744;2023-05-07T05:41:39;8.63;;;4.50;;
48951;SDS011;34758;42.148;24.744;2023-05-07T05:44:06;6.47;;;4.40;;
48951;SDS011;34758;42.148;24.744;2023-05-07T05:46:35;6.50;;;4.57;;
48951;SDS011;34758;42.148;24.744;2023-05-07T05:49:03;8.00;;;4.80;;
48951;SDS011;34758;42.148;24.744;2023-05-07T05:51:31;5.97;;;4.15;;
48951;SDS011;34758;42.148;24.744;2023-05-07T05:53:59;7.00;;;4.03;;
48951;SDS011;34758;42.148;24.744;2023-05-07T05:56:26;7.70;;;4.60;;
48951;SDS011;34758;42.148;24.744;2023-05-07T05:58:54;8.85;;;4.85;;
48951;SDS011;34758;42.148;24.744;2023-05-07T06:01:22;7.97;;;4.35;;
48951;SDS011;34758;42.148;24.744;2023-05-07T06:03:49;6.68;;;4.32;;
48951;SDS011;34758;42.148;24.744;2023-05-07T06:06:19;7.72;;;5.07;;
48951;SDS011;34758;42.148;24.744;2023-05-07T06:08:46;6.05;;;4.20;;
48951;SDS011;34758;42.148;24.744;2023-05-07T06:11:13;6.30;;;4.45;;
48951;SDS011;34758;42.148;24.744;2023-05-07T06:13:40;7.22;;;4.60;;
48951;SDS011;34758;42.148;24.744;2023-05-07T06:16:08;8.00;;;4.80;;
48951;SDS011;34758;42.148;24.744;2023-05-07T06:18:37;8.70;;;5.18;;
48951;SDS011;34758;42.148;24.744;2023-05-07T06:21:04;7.60;;;4.40;;
48951;SDS011;34758;42.148;24.744;2023-05-07T06:23:31;8.27;;;4.80;;
48951;SDS011;34758;42.148;24.744;2023-05-07T06:25:58;5.45;;;4.00;;
48951;SDS011;34758;42.148;24.744;2023-05-07T06:28:25;5.78;;;4.32;;
48951;SDS011;34758;42.148;24.744;2023-05-07T06:30:54;6.03;;;4.43;;
48951;SDS011;34758;42.148;24.744;2023-05-07T06:33:22;8.85;;;4.70;;
48951;SDS011;34758;42.148;24.744;2023-05-07T06:35:49;6.75;;;3.90;;
48951;SDS011;34758;42.148;24.744;2023-05-07T06:38:17;6.70;;;3.80;;
48951;SDS011;34758;42.148;24.744;2023-05-07T06:40:43;6.55;;;4.55;;
48951;SDS011;34758;42.148;24.744;2023-05-07T06:43:15;10.10;;;4.45;;
48951;SDS011;34758;42.148;24.744;2023-05-07T06:45:42;7.22;;;4.45;;
48951;SDS011;34758;42.148;24.744;2023-05-07T06:48:10;10.77;;;4.20;;
48951;SDS011;34758;42.148;24.744;2023-05-07T06:53:10;7.20;;;4.55;;
48951;SDS011;34758;42.148;24.744;2023-05-07T06:55:37;7.72;;;4.47;;
48951;SDS011;34758;42.148;24.744;2023-05-07T06:58:05;5.43;;;4.45;;
48951;SDS011;34758;42.148;24.744;2023-05-07T07:00:32;9.07;;;5.30;;
48951;SDS011;34758;42.148;24.744;2023-05-07T07:03:00;5.53;;;4.53;;
48951;SDS011;34758;42.148;24.744;2023-05-07T07:05:26;6.80;;;4.68;;
48951;SDS011;34758;42.148;24.744;2023-05-07T07:07:55;6.05;;;4.65;;
48951;SDS011;34758;42.148;24.744;2023-05-07T07:10:22;9.55;;;5.20;;
48951;SDS011;34758;42.148;24.744;2023-05-07T07:12:49;8.52;;;5.35;;
48951;SDS011;34758;42.148;24.744;2023-05-07T07:15:17;8.85;;;4.82;;
48951;SDS011;34758;42.148;24.744;2023-05-07T07:17:45;7.05;;;4.53;;
48951;SDS011;34758;42.148;24.744;2023-05-07T07:20:14;7.32;;;5.65;;
48951;SDS011;34758;42.148;24.744;2023-05-07T07:22:42;7.40;;;4.18;;
48951;SDS011;34758;42.148;24.744;2023-05-07T07:25:11;8.45;;;5.60;;
48951;SDS011;34758;42.148;24.744;2023-05-07T07:27:38;11.52;;;6.38;;
48951;SDS011;34758;42.148;24.744;2023-05-07T07:30:06;7.30;;;5.20;;
48951;SDS011;34758;42.148;24.744;2023-05-07T07:32:34;6.28;;;4.72;;
48951;SDS011;34758;42.148;24.744;2023-05-07T07:35:01;8.18;;;4.80;;
48951;SDS011;34758;42.148;24.744;2023-05-07T07:37:28;8.80;;;5.03;;
48951;SDS011;34758;42.148;24.744;2023-05-07T07:39:55;10.38;;;5.57;;
48951;SDS011;34758;42.148;24.744;2023-05-07T07:42:31;6.13;;;4.80;;
48951;SDS011;34758;42.148;24.744;2023-05-07T07:45:00;8.30;;;5.13;;
48951;SDS011;34758;42.148;24.744;2023-05-07T07:47:28;6.43;;;4.97;;
48951;SDS011;34758;42.148;24.744;2023-05-07T07:49:56;6.75;;;5.22;;
48951;SDS011;34758;42.148;24.744;2023-05-07T07:52:24;6.05;;;4.93;;
48951;SDS011;34758;42.148;24.744;2023-05-07T07:54:51;7.13;;;4.32;;
48951;SDS011;34758;42.148;24.744;2023-05-07T07:57:17;5.50;;;4.00;;
48951;SDS011;34758;42.148;24.744;2023-05-07T07:59:45;6.18;;;4.43;;
48951;SDS011;34758;42.148;24.744;2023-05-07T08:02:12;9.57;;;4.20;;
48951;SDS011;34758;42.148;24.744;2023-05-07T08:04:39;5.55;;;4.22;;
48951;SDS011;34758;42.148;24.744;2023-05-07T08:07:08;5.30;;;4.07;;
48951;SDS011;34758;42.148;24.744;2023-05-07T08:09:35;9.48;;;4.55;;
48951;SDS011;34758;42.148;24.744;2023-05-07T08:12:02;7.15;;;4.35;;
48951;SDS011;34758;42.148;24.744;2023-05-07T08:14:29;8.13;;;4.97;;
48951;SDS011;34758;42.148;24.744;2023-05-07T08:16:59;8.43;;;5.05;;
48951;SDS011;34758;42.148;24.744;2023-05-07T08:19:26;7.57;;;4.13;;
48951;SDS011;34758;42.148;24.744;2023-05-07T08:21:55;4.90;;;3.50;;
48951;SDS011;34758;42.148;24.744;2023-05-07T08:24:23;7.68;;;3.67;;
48951;SDS011;34758;42.148;24.744;2023-05-07T08:26:49;5.78;;;3.45;;
48951;SDS011;34758;42.148;24.744;2023-05-07T08:29:16;5.72;;;3.65;;
48951;SDS011;34758;42.148;24.744;2023-05-07T08:31:43;4.55;;;3.33;;
48951;SDS011;34758;42.148;24.744;2023-05-07T08:34:14;2.90;;;1.92;;
48951;SDS011;34758;42.148;24.744;2023-05-07T08:36:43;3.47;;;2.05;;
48951;SDS011;34758;42.148;24.744;2023-05-07T08:39:12;4.45;;;2.40;;
48951;SDS011;34758;42.148;24.744;2023-05-07T08:41:40;5.03;;;2.22;;
48951;SDS011;34758;42.148;24.744;2023-05-07T08:44:11;5.45;;;2.25;;
48951;SDS011;34758;42.148;24.744;2023-05-07T08:46:41;3.45;;;2.20;;
48951;SDS011;34758;42.148;24.744;2023-05-07T08:49:08;6.63;;;2.50;;
48951;SDS011;34758;42.148;24.744;2023-05-07T08:51:37;4.70;;;2.55;;
48951;SDS011;34758;42.148;24.744;2023-05-07T08:54:04;7.43;;;2.88;;
48951;SDS011;34758;42.148;24.744;2023-05-07T08:56:32;3.65;;;2.78;;
48951;SDS011;34758;42.148;24.744;2023-05-07T08:59:00;6.53;;;2.72;;
48951;SDS011;34758;42.148;24.744;2023-05-07T09:01:27;6.07;;;2.53;;
48951;SDS011;34758;42.148;24.744;2023-05-07T09:03:54;3.88;;;1.95;;
48951;SDS011;34758;42.148;24.744;2023-05-07T09:06:21;3.60;;;1.98;;
48951;SDS011;34758;42.148;24.744;2023-05-07T09:08:51;3.65;;;1.63;;
48951;SDS011;34758;42.148;24.744;2023-05-07T09:11:21;3.10;;;1.85;;
48951;SDS011;34758;42.148;24.744;2023-05-07T09:13:49;4.00;;;2.30;;
48951;SDS011;34758;42.148;24.744;2023-05-07T09:16:20;3.88;;;1.70;;
48951;SDS011;34758;42.148;24.744;2023-05-07T09:18:50;5.20;;;2.00;;
48951;SDS011;34758;42.148;24.744;2023-05-07T09:21:18;3.25;;;1.80;;
48951;SDS011;34758;42.148;24.744;2023-05-07T09:23:47;5.07;;;1.80;;
48951;SDS011;34758;42.148;24.744;2023-05-07T09:26:15;4.72;;;1.88;;
48951;SDS011;34758;42.148;24.744;2023-05-07T09:28:43;4.07;;;1.67;;
48951;SDS011;34758;42.148;24.744;2023-05-07T09:31:11;2.17;;;1.52;;
48951;SDS011;34758;42.148;24.744;2023-05-07T09:33:38;2.63;;;1.40;;
48951;SDS011;34758;42.148;24.744;2023-05-07T09:36:06;4.03;;;1.90;;
48951;SDS011;34758;42.148;24.744;2023-05-07T09:38:36;2.90;;;1.70;;
48951;SDS011;34758;42.148;24.744;2023-05-07T09:41:04;4.57;;;2.17;;
48951;SDS011;34758;42.148;24.744;2023-05-07T09:43:34;3.72;;;1.75;;
48951;SDS011;34758;42.148;24.744;2023-05-07T09:46:03;3.45;;;1.80;;
48951;SDS011;34758;42.148;24.744;2023-05-07T09:48:35;4.53;;;2.40;;
48951;SDS011;34758;42.148;24.744;2023-05-07T09:51:05;3.10;;;1.97;;
48951;SDS011;34758;42.148;24.744;2023-05-07T09:53:35;2.97;;;2.30;;
48951;SDS011;34758;42.148;24.744;2023-05-07T09:56:03;4.28;;;2.42;;
48951;SDS011;34758;42.148;24.744;2023-05-07T09:58:32;5.32;;;2.28;;
48951;SDS011;34758;42.148;24.744;2023-05-07T10:01:01;4.43;;;2.13;;
48951;SDS011;34758;42.148;24.744;2023-05-07T10:03:31;2.92;;;1.60;;
48951;SDS011;34758;42.148;24.744;2023-05-07T10:05:58;4.22;;;2.20;;
48951;SDS011;34758;42.148;24.744;2023-05-07T10:08:28;3.83;;;2.00;;
48951;SDS011;34758;42.148;24.744;2023-05-07T10:10:55;3.10;;;2.05;;
48951;SDS011;34758;42.148;24.744;2023-05-07T10:13:26;4.72;;;2.20;;
48951;SDS011;34758;42.148;24.744;2023-05-07T10:15:54;4.07;;;2.70;;
48951;SDS011;34758;42.148;24.744;2023-05-07T10:18:22;3.35;;;2.05;;
48951;SDS011;34758;42.148;24.744;2023-05-07T10:20:54;4.03;;;2.05;;
48951;SDS011;34758;42.148;24.744;2023-05-07T10:23:25;4.25;;;2.10;;
48951;SDS011;34758;42.148;24.744;2023-05-07T10:25:55;2.55;;;1.80;;
48951;SDS011;34758;42.148;24.744;2023-05-07T10:28:22;3.70;;;2.00;;
48951;SDS011;34758;42.148;24.744;2023-05-07T10:30:56;4.53;;;2.60;;
48951;SDS011;34758;42.148;24.744;2023-05-07T10:33:31;4.30;;;2.30;;
48951;SDS011;34758;42.148;24.744;2023-05-07T10:36:00;2.83;;;1.73;;
48951;SDS011;34758;42.148;24.744;2023-05-07T10:38:30;2.47;;;2.00;;
48951;SDS011;34758;42.148;24.744;2023-05-07T10:40:59;3.80;;;1.63;;
48951;SDS011;34758;42.148;24.744;2023-05-07T10:43:29;6.65;;;2.30;;
48951;SDS011;34758;42.148;24.744;2023-05-07T10:46:10;4.18;;;2.10;;
48951;SDS011;34758;42.148;24.744;2023-05-07T10:51:33;4.25;;;1.83;;
48951;SDS011;34758;42.148;24.744;2023-05-07T10:54:19;3.35;;;1.35;;
48951;SDS011;34758;42.148;24.744;2023-05-07T10:56:52;3.17;;;1.50;;
48951;SDS011;34758;42.148;24.744;2023-05-07T11:02:09;4.00;;;2.08;;
48951;SDS011;34758;42.148;24.744;2023-05-07T11:04:39;2.28;;;1.80;;
48951;SDS011;34758;42.148;24.744;2023-05-07T11:09:57;1.70;;;1.38;;
48951;SDS011;34758;42.148;24.744;2023-05-07T11:18:03;3.10;;;1.73;;
48951;SDS011;34758;42.148;24.744;2023-05-07T11:20:46;5.35;;;1.50;;
48951;SDS011;34758;42.148;24.744;2023-05-07T11:26:25;3.08;;;1.58;;
48951;SDS011;34758;42.148;24.744;2023-05-07T11:28:52;4.47;;;1.65;;
48951;SDS011;34758;42.148;24.744;2023-05-07T11:31:24;1.85;;;1.58;;
48951;SDS011;34758;42.148;24.744;2023-05-07T11:33:56;3.08;;;1.98;;
48951;SDS011;34758;42.148;24.744;2023-05-07T11:36:25;4.05;;;2.00;;
48951;SDS011;34758;42.148;24.744;2023-05-07T11:38:58;6.65;;;2.55;;
48951;SDS011;34758;42.148;24.744;2023-05-07T11:41:32;2.55;;;1.90;;
48951;SDS011;34758;42.148;24.744;2023-05-07T11:44:01;1.60;;;1.38;;
48951;SDS011;34758;42.148;24.744;2023-05-07T11:46:28;3.50;;;2.28;;
48951;SDS011;34758;42.148;24.744;2023-05-07T11:48:57;4.68;;;2.58;;
48951;SDS011;34758;42.148;24.744;2023-05-07T11:51:24;1.42;;;1.30;;
48951;SDS011;34758;42.148;24.744;2023-05-07T11:53:55;6.13;;;1.90;;
48951;SDS011;34758;42.148;24.744;2023-05-07T11:56:21;8.55;;;1.77;;
48951;SDS011;34758;42.148;24.744;2023-05-07T11:58:49;3.60;;;1.70;;
48951;SDS011;34758;42.148;24.744;2023-05-07T12:01:18;3.72;;;1.98;;
48951;SDS011;34758;42.148;24.744;2023-05-07T12:03:45;3.65;;;1.65;;
48951;SDS011;34758;42.148;24.744;2023-05-07T12:06:15;3.15;;;1.50;;
48951;SDS011;34758;42.148;24.744;2023-05-07T12:08:43;3.45;;;1.75;;
48951;SDS011;34758;42.148;24.744;2023-05-07T12:11:12;2.95;;;1.60;;
48951;SDS011;34758;42.148;24.744;2023-05-07T12:13:41;1.88;;;1.40;;
48951;SDS011;34758;42.148;24.744;2023-05-07T12:16:08;1.95;;;1.48;;
48951;SDS011;34758;42.148;24.744;2023-05-07T12:18:38;2.65;;;1.92;;
48951;SDS011;34758;42.148;24.744;2023-05-07T12:21:06;4.13;;;1.88;;
48951;SDS011;34758;42.148;24.744;2023-05-07T12:23:35;3.55;;;1.90;;
48951;SDS011;34758;42.148;24.744;2023-05-07T12:26:02;3.63;;;1.70;;
48951;SDS011;34758;42.148;24.744;2023-05-07T12:28:35;4.80;;;1.63;;
48951;SDS011;34758;42.148;24.744;2023-05-07T12:31:04;3.58;;;1.77;;
48951;SDS011;34758;42.148;24.744;2023-05-07T12:33:31;3.92;;;1.67;;
48951;SDS011;34758;42.148;24.744;2023-05-07T12:36:02;2.60;;;1.80;;
48951;SDS011;34758;42.148;24.744;2023-05-07T12:38:35;2.47;;;1.92;;
48951;SDS011;34758;42.148;24.744;2023-05-07T12:41:03;6.45;;;2.10;;
48951;SDS011;34758;42.148;24.744;2023-05-07T12:43:32;3.55;;;2.20;;
48951;SDS011;34758;42.148;24.744;2023-05-07T12:46:00;3.17;;;2.40;;
48951;SDS011;34758;42.148;24.744;2023-05-07T12:48:30;2.50;;;2.13;;
48951;SDS011;34758;42.148;24.744;2023-05-07T12:50:58;3.38;;;1.90;;
48951;SDS011;34758;42.148;24.744;2023-05-07T12:53:28;2.97;;;1.85;;
48951;SDS011;34758;42.148;24.744;2023-05-07T12:55:58;3.83;;;1.85;;
48951;SDS011;34758;42.148;24.744;2023-05-07T12:58:26;1.90;;;1.60;;
48951;SDS011;34758;42.148;24.744;2023-05-07T13:00:55;3.25;;;1.40;;
48951;SDS011;34758;42.148;24.744;2023-05-07T13:03:25;4.13;;;1.67;;
48951;SDS011;34758;42.148;24.744;2023-05-07T13:05:53;2.88;;;1.63;;
48951;SDS011;34758;42.148;24.744;2023-05-07T13:08:28;2.38;;;1.52;;
48951;SDS011;34758;42.148;24.744;2023-05-07T13:10:58;3.45;;;1.75;;
48951;SDS011;34758;42.148;24.744;2023-05-07T13:13:29;4.18;;;1.83;;
48951;SDS011;34758;42.148;24.744;2023-05-07T13:15:57;2.60;;;1.58;;
48951;SDS011;34758;42.148;24.744;2023-05-07T13:18:25;1.73;;;1.60;;
48951;SDS011;34758;42.148;24.744;2023-05-07T13:20:52;1.65;;;1.40;;
48951;SDS011;34758;42.148;24.744;2023-05-07T13:23:20;3.20;;;1.65;;
48951;SDS011;34758;42.148;24.744;2023-05-07T13:25:47;3.38;;;1.98;;
48951;SDS011;34758;42.148;24.744;2023-05-07T13:28:18;3.90;;;1.85;;
48951;SDS011;34758;42.148;24.744;2023-05-07T13:30:45;1.98;;;1.35;;
48951;SDS011;34758;42.148;24.744;2023-05-07T13:33:13;3.42;;;1.75;;
48951;SDS011;34758;42.148;24.744;2023-05-07T13:35:41;6.32;;;1.45;;
48951;SDS011;34758;42.148;24.744;2023-05-07T13:38:08;5.05;;;1.60;;
48951;SDS011;34758;42.148;24.744;2023-05-07T13:40:35;1.90;;;1.45;;
48951;SDS011;34758;42.148;24.744;2023-05-07T13:43:02;4.18;;;1.48;;
48951;SDS011;34758;42.148;24.744;2023-05-07T13:45:31;3.13;;;1.60;;
48951;SDS011;34758;42.148;24.744;2023-05-07T13:47:58;3.35;;;1.77;;
48951;SDS011;34758;42.148;24.744;2023-05-07T13:50:25;2.88;;;1.90;;
48951;SDS011;34758;42.148;24.744;2023-05-07T13:52:55;3.83;;;1.60;;
48951;SDS011;34758;42.148;24.744;2023-05-07T13:55:23;2.47;;;1.30;;
48951;SDS011;34758;42.148;24.744;2023-05-07T13:57:54;1.67;;;1.00;;
48951;SDS011;34758;42.148;24.744;2023-05-07T14:00:22;1.98;;;1.27;;
48951;SDS011;34758;42.148;24.744;2023-05-07T14:02:52;4.47;;;2.13;;
48951;SDS011;34758;42.148;24.744;2023-05-07T14:05:20;2.97;;;1.80;;
48951;SDS011;34758;42.148;24.744;2023-05-07T14:07:48;3.67;;;1.38;;
48951;SDS011;34758;42.148;24.744;2023-05-07T14:10:17;3.03;;;1.30;;
48951;SDS011;34758;42.148;24.744;2023-05-07T14:12:44;1.40;;;1.30;;
48951;SDS011;34758;42.148;24.744;2023-05-07T14:15:11;1.35;;;1.20;;
48951;SDS011;34758;42.148;24.744;2023-05-07T14:17:38;2.33;;;2.13;;
48951;SDS011;34758;42.148;24.744;2023-05-07T14:20:08;4.57;;;1.92;;
48951;SDS011;34758;42.148;24.744;2023-05-07T14:22:36;2.40;;;1.30;;
48951;SDS011;34758;42.148;24.744;2023-05-07T14:25:04;2.72;;;1.50;;
48951;SDS011;34758;42.148;24.744;2023-05-07T14:27:33;2.30;;;1.20;;
48951;SDS011;34758;42.148;24.744;2023-05-07T14:30:00;1.75;;;1.45;;
48951;SDS011;34758;42.148;24.744;2023-05-07T14:32:28;1.88;;;1.70;;
48951;SDS011;34758;42.148;24.744;2023-05-07T14:34:56;3.13;;;1.40;;
48951;SDS011;34758;42.148;24.744;2023-05-07T14:37:24;3.53;;;2.40;;
48951;SDS011;34758;42.148;24.744;2023-05-07T14:39:51;4.90;;;2.90;;
48951;SDS011;34758;42.148;24.744;2023-05-07T14:42:18;2.85;;;1.60;;
48951;SDS011;34758;42.148;24.744;2023-05-07T14:44:45;3.05;;;1.30;;
48951;SDS011;34758;42.148;24.744;2023-05-07T14:47:13;3.38;;;1.30;;
48951;SDS011;34758;42.148;24.744;2023-05-07T14:49:42;2.17;;;1.08;;
48951;SDS011;34758;42.148;24.744;2023-05-07T14:52:08;2.70;;;1.23;;
48951;SDS011;34758;42.148;24.744;2023-05-07T14:54:37;2.53;;;1.40;;
48951;SDS011;34758;42.148;24.744;2023-05-07T14:57:06;2.03;;;1.40;;
48951;SDS011;34758;42.148;24.744;2023-05-07T14:59:34;3.63;;;1.60;;